Time;durP1;ratioP1;P1;durP2;ratioP2;P2;SDS_P1;SDS_P2;PMS_P1;PMS_P2;Temp;Humidity;BMP_temperature;BMP_pressure;BME280_temperature;BME280_humidity;BME280_pressure;Samples;Min_cycle;Max_cycle;Signal;HPM_P1;HPM_P2
2022/11/04 00:00:47;;;;;;;47.53;17.52;;;;;;;8.84;100.00;98514.53;4468623;32;20428;-77
2022/11/04 00:03:14;;;;;;;35.75;17.08;;;;;;;8.78;100.00;98499.41;4470795;32;20104;-77
2022/11/04 00:05:41;;;;;;;46.47;16.73;;;;;;;8.75;100.00;98500.50;4484188;32;20096;-77
2022/11/04 00:08:24;;;;;;;44.92;17.52;;;;;;;8.73;100.00;98499.78;4476339;31;20123;-77
2022/11/04 00:13:41;;;;;;;37.88;15.85;;;;;;;8.81;100.00;98480.84;4468327;32;20133;-77
2022/11/04 00:18:54;;;;;;;43.30;16.98;;;;;;;8.74;100.00;98482.34;4468181;32;20080;-77
2022/11/04 00:29:43;;;;;;;40.70;15.90;;;;;;;8.66;100.00;98480.38;4468134;32;20085;-78
2022/11/04 00:34:56;;;;;;;45.67;17.45;;;;;;;8.68;100.00;98481.09;4467726;32;20101;-77
2022/11/04 00:37:23;;;;;;;39.67;17.17;;;;;;;8.70;100.00;98472.19;4467907;32;20177;-77
2022/11/04 00:39:50;;;;;;;41.80;17.58;;;;;;;8.68;100.00;98468.84;4467719;32;20148;-77
2022/11/04 00:42:17;;;;;;;41.45;16.37;;;;;;;8.72;100.00;98455.53;4468312;32;20188;-77
2022/11/04 00:44:44;;;;;;;37.33;15.57;;;;;;;8.74;100.00;98445.78;4470072;32;20113;-78
2022/11/04 00:47:11;;;;;;;44.97;18.05;;;;;;;8.74;100.00;98436.16;4470129;32;20153;-77
2022/11/04 00:49:38;;;;;;;40.92;16.27;;;;;;;8.73;100.00;98433.69;4470247;32;20164;-77
2022/11/04 00:52:05;;;;;;;45.70;19.15;;;;;;;8.74;100.00;98440.56;4470316;32;20149;-76
2022/11/04 00:54:32;;;;;;;43.83;18.73;;;;;;;8.72;100.00;98445.94;4470162;32;20144;-77
2022/11/04 00:56:59;;;;;;;46.65;17.83;;;;;;;8.77;100.00;98445.53;4470307;32;20156;-77
2022/11/04 00:59:27;;;;;;;43.13;16.85;;;;;;;8.84;100.00;98450.09;4470299;32;20174;-78
2022/11/04 01:01:55;;;;;;;37.00;16.40;;;;;;;8.86;100.00;98450.75;4470214;32;20149;-77
2022/11/04 01:04:22;;;;;;;41.30;16.15;;;;;;;8.91;100.00;98447.75;4479525;32;20089;-77
2022/11/04 01:06:49;;;;;;;47.20;15.98;;;;;;;8.91;100.00;98458.19;4485754;31;20156;-76
2022/11/04 01:09:16;;;;;;;46.05;16.33;;;;;;;8.97;100.00;98446.37;4471195;31;20489;-76
2022/11/04 01:11:43;;;;;;;42.83;17.92;;;;;;;9.00;100.00;98446.94;4468855;32;20105;-77
2022/11/04 01:14:10;;;;;;;35.47;15.82;;;;;;;9.04;100.00;98453.56;4470352;32;20116;-77
2022/11/04 01:16:38;;;;;;;42.88;15.82;;;;;;;9.11;100.00;98442.56;4470218;32;20156;-77
2022/11/04 01:19:05;;;;;;;37.90;15.93;;;;;;;9.08;100.00;98438.41;4470352;32;20175;-77
2022/11/04 01:21:33;;;;;;;36.22;14.73;;;;;;;9.01;100.00;98430.31;4470056;32;20120;-77
2022/11/04 01:24:00;;;;;;;39.22;17.42;;;;;;;9.05;100.00;98425.63;4469867;32;20119;-76
2022/11/04 01:26:27;;;;;;;38.83;16.75;;;;;;;9.05;100.00;98423.84;4469947;32;20145;-77
2022/11/04 01:28:55;;;;;;;33.80;14.87;;;;;;;9.11;100.00;98427.69;4469819;32;20655;-76
2022/11/04 01:31:27;;;;;;;40.72;16.15;;;;;;;9.11;100.00;98425.06;4469932;32;20093;-76
2022/11/04 01:33:55;;;;;;;41.40;16.50;;;;;;;9.11;100.00;98425.06;4469594;32;20188;-76
2022/11/04 01:36:23;;;;;;;46.37;18.00;;;;;;;9.15;100.00;98409.97;4469710;32;20107;-77
2022/11/04 01:38:50;;;;;;;38.72;16.83;;;;;;;9.15;100.00;98412.59;4470125;32;20092;-78
2022/11/04 01:41:29;;;;;;;39.95;17.15;;;;;;;9.19;100.00;98403.47;4469695;32;20159;-77
2022/11/04 01:44:00;;;;;;;39.97;15.70;;;;;;;9.20;100.00;98389.47;4469914;32;20183;-77
2022/11/04 01:46:42;;;;;;;33.63;14.80;;;;;;;9.19;100.00;98393.03;4469679;32;20180;-77
2022/11/04 01:49:38;;;;;;;43.55;16.75;;;;;;;9.20;100.00;98392.87;4469579;32;20654;-77
2022/11/04 01:52:18;;;;;;;39.97;16.87;;;;;;;9.14;100.00;98388.22;4420911;32;20518;-77
2022/11/04 01:54:47;;;;;;;37.63;15.30;;;;;;;9.14;100.00;98387.41;4408334;32;20123;-77
2022/11/04 01:57:19;;;;;;;44.72;15.98;;;;;;;9.23;100.00;98383.97;4421216;32;20556;-77
2022/11/04 01:59:46;;;;;;;43.83;16.75;;;;;;;9.24;100.00;98375.16;4420952;32;20542;-77
2022/11/04 02:02:14;;;;;;;43.25;16.08;;;;;;;9.31;100.00;98386.72;4420916;32;20120;-76
2022/11/04 02:04:42;;;;;;;40.40;16.92;;;;;;;9.30;100.00;98381.62;4409093;32;20113;-77
2022/11/04 02:07:10;;;;;;;43.92;16.52;;;;;;;9.18;100.00;98371.31;4406244;32;20105;-76
2022/11/04 02:09:38;;;;;;;46.97;17.08;;;;;;;9.19;100.00;98372.13;4408038;32;20098;-77
2022/11/04 02:14:52;;;;;;;38.13;16.12;;;;;;;9.18;100.00;98355.63;4420803;32;20098;-77
2022/11/04 02:18:04;;;;;;;41.67;17.17;;;;;;;9.21;100.00;98347.50;4420998;32;20101;-76
2022/11/04 02:20:33;;;;;;;39.58;17.85;;;;;;;9.26;100.00;98349.69;4420861;32;20408;-77
2022/11/04 02:23:18;;;;;;;45.55;16.73;;;;;;;9.21;100.00;98341.47;4420831;32;20122;-77
2022/11/04 02:25:45;;;;;;;48.45;17.05;;;;;;;9.20;100.00;98337.19;4408378;32;20093;-77
2022/11/04 02:28:34;;;;;;;44.95;17.73;;;;;;;9.09;100.00;98329.50;4437597;32;20131;-76
2022/11/04 02:31:14;;;;;;;40.17;17.10;;;;;;;9.05;100.00;98329.78;4468182;32;20160;-77
2022/11/04 02:34:02;;;;;;;40.33;16.33;;;;;;;9.09;100.00;98316.44;4469572;32;20469;-77
2022/11/04 02:37:14;;;;;;;44.67;16.67;;;;;;;9.14;100.00;98311.63;4469469;32;20551;-76
2022/11/04 02:40:09;;;;;;;45.95;17.00;;;;;;;9.08;100.00;98306.94;4469411;32;20091;-77
2022/11/04 02:42:45;;;;;;;;;;;;;;;9.06;100.00;98307.91;4469643;32;20147;-76
2022/11/04 02:45:16;;;;;;;46.22;16.35;;;;;;;9.10;100.00;98313.69;4469538;32;20317;-77
2022/11/04 02:47:47;;;;;;;45.28;16.90;;;;;;;9.04;100.00;98320.28;4468143;32;20089;-78
2022/11/04 02:51:11;;;;;;;41.85;16.73;;;;;;;9.01;100.00;98322.38;4468117;32;20140;-77
2022/11/04 02:53:44;;;;;;;42.72;16.85;;;;;;;9.02;100.00;98319.63;4360123;32;20087;-78
2022/11/04 02:56:12;;;;;;;43.22;15.57;;;;;;;8.96;100.00;98314.94;4359927;32;20209;-77
2022/11/04 02:58:44;;;;;;;40.88;16.33;;;;;;;8.99;100.00;98317.28;4360279;32;20103;-77
2022/11/04 03:01:13;;;;;;;49.22;17.67;;;;;;;9.05;100.00;98314.13;4360279;32;20618;-77
2022/11/04 03:03:46;;;;;;;43.70;16.58;;;;;;;9.00;100.00;98310.25;4354945;32;20465;-76
2022/11/04 03:06:16;;;;;;;46.28;17.70;;;;;;;9.00;100.00;98302.41;4344388;33;20155;-77
2022/11/04 03:08:47;;;;;;;50.03;18.50;;;;;;;8.92;100.00;98295.28;4355522;32;20550;-76
2022/11/04 03:11:16;;;;;;;46.95;18.70;;;;;;;8.90;100.00;98280.69;4347636;32;20162;-77
2022/11/04 03:13:46;;;;;;;53.65;19.90;;;;;;;8.89;100.00;98266.81;4360406;32;20165;-76
2022/11/04 03:16:17;;;;;;;52.22;17.67;;;;;;;8.87;100.00;98261.75;4359993;32;20572;-77
2022/11/04 03:18:53;;;;;;;57.80;17.73;;;;;;;8.84;100.00;98253.34;4360022;32;20162;-76
2022/11/04 03:21:21;;;;;;;47.72;17.02;;;;;;;8.76;100.00;98251.41;4359776;32;20146;-77
2022/11/04 03:23:48;;;;;;;52.72;17.58;;;;;;;8.70;100.00;98247.59;4359893;32;20130;-76
2022/11/04 03:26:31;;;;;;;51.28;18.73;;;;;;;8.78;100.00;98240.84;4361514;32;20090;-77
2022/11/04 03:29:24;;;;;;;55.40;18.70;;;;;;;8.87;100.00;98247.84;4404998;32;20118;-76
2022/11/04 03:32:16;;;;;;;58.45;19.17;;;;;;;8.90;100.00;98246.75;4463459;32;20192;-77
2022/11/04 03:34:44;;;;;;;54.53;18.37;;;;;;;8.89;100.00;98253.75;4468720;32;20558;-77
2022/11/04 03:37:11;;;;;;;50.50;19.02;;;;;;;8.92;100.00;98245.66;4468665;32;20141;-76
2022/11/04 03:39:38;;;;;;;49.28;19.98;;;;;;;8.94;100.00;98238.47;4468788;32;20159;-77
2022/11/04 03:42:18;;;;;;;47.95;16.77;;;;;;;8.81;100.00;98241.41;4467459;32;20112;-76
2022/11/04 03:44:54;;;;;;;50.80;17.33;;;;;;;8.84;100.00;98242.88;4467782;32;20093;-77
2022/11/04 03:47:23;;;;;;;51.65;19.20;;;;;;;8.88;100.00;98239.03;4467401;32;20111;-76
2022/11/04 03:50:02;;;;;;;48.65;17.95;;;;;;;8.90;100.00;98231.88;4467499;32;20123;-76
2022/11/04 03:52:30;;;;;;;52.30;17.02;;;;;;;8.95;100.00;98223.63;4468743;32;20191;-76
2022/11/04 03:54:57;;;;;;;44.67;16.62;;;;;;;8.96;100.00;98209.59;4468799;32;20097;-77
2022/11/04 03:57:42;;;;;;;46.35;18.73;;;;;;;8.86;100.00;98205.22;4467495;32;20093;-76
2022/11/04 04:00:18;;;;;;;45.65;17.55;;;;;;;8.86;100.00;98191.34;4468502;32;20112;-76
2022/11/04 04:02:57;;;;;;;45.67;17.35;;;;;;;8.83;100.00;98199.47;4468612;32;20101;-76
2022/11/04 04:05:32;;;;;;;52.97;18.92;;;;;;;8.84;100.00;98204.56;4451530;32;20447;-76
2022/11/04 04:08:18;;;;;;;47.75;18.33;;;;;;;8.80;100.00;98194.53;4458911;32;20096;-76
2022/11/04 04:11:02;;;;;;;48.78;17.35;;;;;;;8.77;100.00;98195.63;4468213;32;20776;-76
2022/11/04 04:13:52;;;;;;;50.58;16.90;;;;;;;8.76;100.00;98187.94;4467135;32;20139;-76
2022/11/04 04:16:44;;;;;;;45.85;15.98;;;;;;;8.74;100.00;98180.22;4468238;32;20093;-76
2022/11/04 04:19:20;;;;;;;47.38;18.17;;;;;;;8.76;100.00;98182.69;4470448;32;20478;-76
2022/11/04 04:21:49;;;;;;;47.88;18.60;;;;;;;8.77;100.00;98187.78;4470335;32;20176;-76
2022/11/04 04:29:56;;;;;;;62.95;21.67;;;;;;;8.83;100.00;98194.25;4410904;32;20204;-76
2022/11/04 04:32:25;;;;;;;60.10;20.58;;;;;;;8.77;100.00;98189.59;4421332;32;20167;-76
2022/11/04 04:35:40;;;;;;;65.93;23.20;;;;;;;8.83;100.00;98191.62;4421414;32;20106;-76
2022/11/04 04:37:43;;;;;;;59.70;22.60;;;;;;;8.84;100.00;98186.25;4410959;32;20120;-76
2022/11/04 04:45:51;;;;;;;64.00;22.35;;;;;;;8.87;100.00;98179.91;4421607;32;20152;-76
2022/11/04 04:48:18;;;;;;;63.05;22.70;;;;;;;8.86;100.00;98176.50;4421579;32;20125;-76
2022/11/04 04:50:47;;;;;;;67.18;22.98;;;;;;;8.82;100.00;98182.94;4421407;32;20085;-76
2022/11/04 04:53:15;;;;;;;60.53;22.00;;;;;;;8.83;100.00;98182.00;4421237;32;20175;-76
2022/11/04 04:55:42;;;;;;;61.13;23.17;;;;;;;8.69;100.00;98183.25;4421309;32;20144;-76
2022/11/04 04:58:09;;;;;;;69.18;23.45;;;;;;;8.67;100.00;98177.34;4421159;32;20894;-76
2022/11/04 05:00:36;;;;;;;70.50;23.70;;;;;;;8.66;100.00;98177.47;4421502;32;20082;-76
2022/11/04 05:03:03;;;;;;;60.67;22.37;;;;;;;8.67;100.00;98174.72;4421186;32;20168;-76
2022/11/04 05:05:30;;;;;;;66.43;23.95;;;;;;;8.65;100.00;98158.38;4454600;32;20088;-76
2022/11/04 05:08:07;;;;;;;68.10;23.62;;;;;;;8.51;100.00;98159.66;4460094;32;20559;-76
2022/11/04 05:10:35;;;;;;;107.28;26.70;;;;;;;8.50;100.00;98155.38;4469986;32;20145;-76
2022/11/04 05:15:48;;;;;;;74.97;25.15;;;;;;;8.39;100.00;98150.28;4470191;32;20100;-76
2022/11/04 05:18:15;;;;;;;73.40;25.60;;;;;;;8.51;100.00;98158.84;4469804;32;20136;-77
2022/11/04 05:20:43;;;;;;;71.65;23.77;;;;;;;8.42;100.00;98159.59;4470051;32;20454;-76
2022/11/04 05:23:12;;;;;;;73.40;25.02;;;;;;;8.42;100.00;98159.59;4469938;32;20541;-77
2022/11/04 05:25:40;;;;;;;70.95;24.10;;;;;;;8.40;100.00;98166.75;4470043;32;20095;-75
2022/11/04 05:28:07;;;;;;;83.47;25.65;;;;;;;8.52;100.00;98171.75;4469090;32;20092;-76
2022/11/04 05:30:35;;;;;;;82.03;26.27;;;;;;;8.43;100.00;98169.09;4468855;32;20097;-76
2022/11/04 05:33:02;;;;;;;85.93;26.98;;;;;;;8.43;100.00;98172.53;4469112;32;20158;-76
2022/11/04 05:35:32;;;;;;;101.60;25.55;;;;;;;8.38;100.00;98169.50;4469055;32;20626;-76
2022/11/04 05:37:59;;;;;;;94.82;26.65;;;;;;;8.34;100.00;98179.41;4469490;32;20092;-76
2022/11/04 05:40:29;;;;;;;92.15;25.73;;;;;;;8.38;100.00;98185.16;4468929;32;20164;-76
2022/11/04 05:42:59;;;;;;;113.43;30.88;;;;;;;8.41;100.00;98184.91;4468882;32;20164;-73
2022/11/04 05:45:27;;;;;;;107.45;27.05;;;;;;;8.40;100.00;98185.03;4465516;32;20160;-73
2022/11/04 05:48:02;;;;;;;124.05;29.50;;;;;;;8.27;100.00;98183.53;4469104;32;20092;-73
2022/11/04 05:50:31;;;;;;;153.80;26.17;;;;;;;8.39;100.00;98183.38;4468500;32;20209;-73
2022/11/04 05:52:59;;;;;;;166.20;26.62;;;;;;;8.36;100.00;98181.88;4463059;32;20100;-73
2022/11/04 05:55:26;;;;;;;183.10;29.65;;;;;;;8.29;100.00;98171.16;4469138;32;20434;-73
2022/11/04 05:57:54;;;;;;;130.25;25.10;;;;;;;8.30;100.00;98166.78;4475541;32;20172;-73
2022/11/04 06:00:21;;;;;;;95.93;24.42;;;;;;;8.25;100.00;98168.97;4461256;32;20093;-73
2022/11/04 06:02:48;;;;;;;142.40;28.95;;;;;;;8.26;100.00;98168.81;4458858;32;20120;-73
2022/11/04 06:05:15;;;;;;;110.15;25.77;;;;;;;8.22;100.00;98164.84;4464486;32;20143;-73
2022/11/04 06:07:42;;;;;;;95.93;23.87;;;;;;;8.17;100.00;98154.84;4458590;32;20138;-73
2022/11/04 06:10:10;;;;;;;142.82;26.55;;;;;;;8.19;100.00;98149.47;4467117;32;20206;-73
2022/11/04 06:12:37;;;;;;;93.53;24.75;;;;;;;8.12;100.00;98164.03;4467553;32;20096;-73
2022/11/04 06:15:04;;;;;;;102.87;24.40;;;;;;;8.18;100.00;98163.47;4467651;32;20088;-73
2022/11/04 06:17:31;;;;;;;107.87;27.10;;;;;;;8.21;100.00;98167.59;4449263;32;20380;-73
2022/11/04 06:19:58;;;;;;;89.75;24.27;;;;;;;8.12;100.00;98150.97;4461241;32;20090;-73
2022/11/04 06:22:26;;;;;;;114.95;26.87;;;;;;;8.11;100.00;98157.16;4460261;32;20100;-73
2022/11/04 06:24:53;;;;;;;104.78;25.30;;;;;;;8.03;100.00;98152.62;4466462;32;20093;-73
2022/11/04 06:27:20;;;;;;;115.70;25.50;;;;;;;8.08;100.00;98166.06;4454930;32;208857;-73
2022/11/04 06:29:47;;;;;;;111.80;24.77;;;;;;;8.03;100.00;98175.28;4463660;32;20137;-73
2022/11/04 06:32:17;;;;;;;102.93;25.33;;;;;;;7.91;100.00;98169.34;4459799;32;20645;-73
2022/11/04 06:34:45;;;;;;;108.47;26.67;;;;;;;7.99;100.00;98167.72;4463280;32;20532;-73
2022/11/04 06:37:12;;;;;;;111.97;29.70;;;;;;;7.99;100.00;98175.53;4461846;32;20115;-73
2022/11/04 06:39:39;;;;;;;96.20;21.92;;;;;;;8.10;100.00;98173.75;4461251;32;20191;-72
2022/11/04 06:42:06;;;;;;;83.43;19.67;;;;;;;8.12;100.00;98172.66;4466583;32;20130;-73
2022/11/04 06:44:33;;;;;;;78.60;22.27;;;;;;;8.03;100.00;98180.50;4465405;32;20112;-72
2022/11/04 06:47:01;;;;;;;58.47;20.58;;;;;;;8.09;100.00;98169.50;4466298;32;20551;-72
2022/11/04 06:49:28;;;;;;;61.08;21.55;;;;;;;8.08;100.00;98176.50;4466825;32;20451;-71
2022/11/04 06:51:55;;;;;;;73.72;22.30;;;;;;;8.16;100.00;98181.03;4466696;32;20116;-72
2022/11/04 06:54:22;;;;;;;71.97;21.98;;;;;;;8.12;100.00;98174.47;4467310;32;20104;-72
2022/11/04 06:56:50;;;;;;;112.10;24.27;;;;;;;8.14;100.00;98177.75;4468370;32;20077;-71
2022/11/04 06:59:19;;;;;;;126.57;25.37;;;;;;;8.20;100.00;98177.19;4467979;32;20419;-74
2022/11/04 07:01:48;;;;;;;87.18;24.90;;;;;;;8.23;100.00;98171.69;4461214;32;20132;-73
2022/11/04 07:04:15;;;;;;;84.50;24.23;;;;;;;8.22;100.00;98177.91;4463893;32;21003;-74
2022/11/04 07:06:43;;;;;;;88.07;23.05;;;;;;;8.16;100.00;98175.81;4465141;32;20604;-75
2022/11/04 07:09:13;;;;;;;88.75;24.48;;;;;;;8.20;100.00;98190.25;4465474;32;20211;-74
2022/11/04 07:11:41;;;;;;;73.70;22.27;;;;;;;8.20;100.00;98181.59;4462723;32;20496;-74
2022/11/04 07:14:08;;;;;;;85.62;22.62;;;;;;;8.21;100.00;98183.25;4466692;32;20131;-75
2022/11/04 07:16:36;;;;;;;80.35;24.92;;;;;;;8.20;100.00;98179.00;4466916;32;20140;-75
2022/11/04 07:19:03;;;;;;;108.90;25.65;;;;;;;8.21;100.00;98176.25;4468340;32;20093;-75
2022/11/04 07:21:31;;;;;;;108.25;26.52;;;;;;;8.22;100.00;98175.28;4466423;32;20446;-74
2022/11/04 07:23:59;;;;;;;87.20;25.83;;;;;;;8.20;100.00;98174.59;4466513;32;20513;-73
2022/11/04 07:26:26;;;;;;;90.00;27.20;;;;;;;8.12;100.00;98174.47;4468472;32;20157;-74
2022/11/04 07:28:53;;;;;;;141.60;29.12;;;;;;;8.09;100.00;98174.72;4468250;32;20188;-74
2022/11/04 07:31:21;;;;;;;74.12;24.37;;;;;;;7.95;100.00;98179.37;4466692;32;20104;-74
2022/11/04 07:33:50;;;;;;;85.00;24.80;;;;;;;8.10;100.00;98184.19;4465729;32;20146;-74
2022/11/04 07:36:18;;;;;;;124.28;25.25;;;;;;;8.05;100.00;98183.78;4467445;32;20169;-75
2022/11/04 07:38:48;;;;;;;78.12;23.40;;;;;;;7.95;100.00;98174.16;4465587;32;20169;-76
2022/11/04 07:41:15;;;;;;;97.18;24.73;;;;;;;7.91;100.00;98166.75;4465828;32;20100;-74
2022/11/04 07:43:47;;;;;;;100.95;28.50;;;;;;;7.98;100.00;98173.06;4465152;32;20372;-73
2022/11/04 07:46:14;;;;;;;75.85;23.80;;;;;;;8.03;100.00;98177.88;4465650;32;20164;-73
2022/11/04 07:48:42;;;;;;;84.90;24.65;;;;;;;8.11;100.00;98164.97;4465095;32;20108;-74
2022/11/04 07:51:11;;;;;;;115.45;25.30;;;;;;;8.11;100.00;98167.59;4466373;32;20556;-72
2022/11/04 07:53:39;;;;;;;99.65;25.45;;;;;;;8.17;100.00;98182.69;4468609;32;20148;-73
2022/11/04 07:56:07;;;;;;;101.25;26.12;;;;;;;8.23;100.00;98168.28;4470476;32;20481;-74
2022/11/04 07:58:34;;;;;;;81.28;25.35;;;;;;;8.14;100.00;98167.31;4466064;32;20085;-75
2022/11/04 08:01:08;;;;;;;109.40;25.15;;;;;;;8.06;100.00;98165.38;4460597;32;20467;-73
2022/11/04 08:03:35;;;;;;;94.43;26.57;;;;;;;7.92;100.00;98168.41;4459198;32;20165;-74
2022/11/04 08:06:04;;;;;;;82.50;28.15;;;;;;;7.97;100.00;98161.78;4464196;32;20159;-74
2022/11/04 08:08:31;;;;;;;102.72;27.15;;;;;;;8.01;100.00;98157.16;4462724;32;20084;-73
2022/11/04 08:11:10;;;;;;;88.57;24.02;;;;;;;8.03;100.00;98143.97;4464597;32;20121;-72
2022/11/04 08:13:44;;;;;;;;;;;;;;;8.09;100.00;98164.28;4466512;32;20096;-73
2022/11/04 08:16:14;;;;;;;119.87;26.70;;;;;;;8.06;100.00;98156.75;4467289;32;20033;-74
2022/11/04 08:18:42;;;;;;;108.35;26.58;;;;;;;8.12;100.00;98159.62;4465757;32;20484;-74
2022/11/04 08:21:10;;;;;;;103.68;28.92;;;;;;;8.08;100.00;98154.81;4457665;32;20113;-73
2022/11/04 08:23:37;;;;;;;83.22;26.75;;;;;;;8.04;100.00;98148.22;4466783;32;20494;-72
2022/11/04 08:26:08;;;;;;;87.03;25.95;;;;;;;8.07;100.00;98142.72;4467304;32;20515;-73
2022/11/04 08:28:36;;;;;;;82.05;27.52;;;;;;;8.18;100.00;98147.81;4467960;32;20121;-72
2022/11/04 08:31:10;;;;;;;90.78;27.87;;;;;;;8.27;100.00;98146.19;4466603;32;20422;-71
2022/11/04 08:33:37;;;;;;;86.60;26.30;;;;;;;8.16;100.00;98150.56;4471203;32;20180;-72
2022/11/04 08:36:08;;;;;;;74.30;25.20;;;;;;;8.18;100.00;98143.41;4461701;32;20128;-73
2022/11/04 08:38:36;;;;;;;70.60;24.25;;;;;;;8.36;100.00;98134.91;4463923;32;20093;-73
2022/11/04 08:41:04;;;;;;;64.70;26.50;;;;;;;8.39;100.00;98136.38;4466981;32;20116;-74
2022/11/04 08:43:33;;;;;;;76.87;26.80;;;;;;;8.40;100.00;98122.38;4465826;32;20587;-73
2022/11/04 08:46:01;;;;;;;84.85;28.98;;;;;;;8.47;100.00;98126.94;4459078;32;20111;-73
2022/11/04 08:48:28;;;;;;;77.62;27.48;;;;;;;8.55;100.00;98134.06;4468627;32;20114;-73
2022/11/04 08:51:00;;;;;;;70.90;27.10;;;;;;;8.46;100.00;98134.91;4468222;32;20269;-73
2022/11/04 08:53:27;;;;;;;72.12;27.70;;;;;;;8.46;100.00;98130.53;4467843;32;20122;-74
2022/11/04 08:55:54;;;;;;;68.05;27.30;;;;;;;8.48;100.00;98119.97;4464559;32;20100;-72
2022/11/04 08:58:22;;;;;;;73.85;27.33;;;;;;;8.52;100.00;98113.47;4465719;32;20127;-72
2022/11/04 09:00:50;;;;;;;66.93;25.65;;;;;;;8.50;100.00;98104.97;4465780;32;20148;-74
2022/11/04 09:03:17;;;;;;;76.87;27.10;;;;;;;8.34;100.00;98106.34;4471391;32;20104;-73
2022/11/04 09:05:46;;;;;;;76.37;27.20;;;;;;;8.23;100.00;98088.22;4480964;31;20092;-73
2022/11/04 09:08:17;;;;;;;87.03;30.12;;;;;;;8.28;100.00;98091.25;4466028;32;20660;-72
2022/11/04 09:10:45;;;;;;;84.32;30.45;;;;;;;8.24;100.00;98097.69;4464002;32;20637;-73
2022/11/04 09:13:14;;;;;;;82.88;29.73;;;;;;;8.18;100.00;98099.06;4465231;32;20749;-77
2022/11/04 09:15:41;;;;;;;65.47;26.80;;;;;;;8.15;100.00;98114.19;4464800;32;20110;-75
2022/11/04 09:18:09;;;;;;;74.57;27.13;;;;;;;8.37;100.00;98109.63;4469108;32;20164;-74
2022/11/04 09:20:40;;;;;;;70.97;26.50;;;;;;;8.26;100.00;98100.97;4466373;32;20195;-74
2022/11/04 09:23:08;;;;;;;79.70;27.87;;;;;;;8.27;100.00;98097.41;4465419;32;20480;-74
2022/11/04 09:25:36;;;;;;;70.90;27.33;;;;;;;8.19;100.00;98102.50;4462982;32;20160;-74
2022/11/04 09:28:03;;;;;;;77.78;26.87;;;;;;;8.10;100.00;98091.12;4467054;32;20240;-75
2022/11/04 09:30:31;;;;;;;73.15;28.33;;;;;;;8.08;100.00;98084.38;4462163;32;20145;-75
2022/11/04 09:32:58;;;;;;;77.40;28.87;;;;;;;8.22;100.00;98089.19;4463519;32;20139;-73
2022/11/04 09:35:26;;;;;;;79.80;27.62;;;;;;;8.17;100.00;98086.16;4460592;32;20104;-73
2022/11/04 09:37:53;;;;;;;67.80;25.67;;;;;;;8.20;100.00;98090.28;4461152;32;20088;-72
2022/11/04 09:40:23;;;;;;;70.85;27.05;;;;;;;8.16;100.00;98081.88;4459825;32;20104;-72
2022/11/04 09:42:56;;;;;;;77.97;27.95;;;;;;;8.19;100.00;98071.19;4462253;32;20081;-73
2022/11/04 09:45:26;;;;;;;83.57;28.98;;;;;;;8.31;100.00;98058.81;4461870;32;20093;-73
2022/11/04 09:48:06;;;;;;;64.35;25.35;;;;;;;8.33;100.00;98055.09;4465036;32;20093;-72
2022/11/04 09:50:49;;;;;;;69.18;24.92;;;;;;;8.23;100.00;98049.06;4472480;31;20097;-71
2022/11/04 09:53:38;;;;;;;66.62;24.35;;;;;;;8.17;100.00;98047.88;4463330;32;20108;-75
2022/11/04 09:56:19;;;;;;;66.55;26.55;;;;;;;8.14;100.00;98036.88;4461592;32;20097;-75
2022/11/04 09:58:47;;;;;;;75.57;27.27;;;;;;;8.17;100.00;98034.81;4460540;32;20095;-75
2022/11/04 10:01:17;;;;;;;68.53;26.77;;;;;;;8.08;100.00;98035.63;4461595;32;20850;-73
2022/11/04 10:04:22;;;;;;;59.55;24.52;;;;;;;8.15;100.00;98033.31;4462443;32;20506;-73
2022/11/04 10:07:10;;;;;;;72.50;25.88;;;;;;;8.21;100.00;98032.75;4465112;32;20156;-73
2022/11/04 10:10:08;;;;;;;73.28;28.65;;;;;;;8.26;100.00;98037.53;4465041;32;20956;-73
2022/11/04 10:12:55;;;;;;;77.50;29.37;;;;;;;8.26;100.00;98034.94;4462759;32;20109;-73
2022/11/04 10:15:34;;;;;;;74.72;27.80;;;;;;;8.25;100.00;98026.28;4459857;32;20561;-74
2022/11/04 10:18:10;;;;;;;75.95;28.83;;;;;;;8.17;100.00;98029.59;4462988;32;20676;-72
2022/11/04 10:21:00;;;;;;;77.50;29.95;;;;;;;8.25;100.00;98031.50;4459324;32;20138;-74
2022/11/04 10:23:41;;;;;;;73.70;27.05;;;;;;;8.29;100.00;98032.03;4454693;32;22128;-75
2022/11/04 10:26:18;;;;;;;73.18;27.00;;;;;;;8.34;100.00;98019.37;4458177;32;20140;-73
2022/11/04 10:28:59;;;;;;;79.43;27.37;;;;;;;8.40;100.00;98016.19;4459742;32;20126;-74
2022/11/04 10:31:27;;;;;;;69.18;29.35;;;;;;;8.47;100.00;98016.50;4462628;32;20164;-74
2022/11/04 10:33:58;;;;;;;64.53;28.33;;;;;;;8.47;100.00;98011.28;4476005;31;20371;-74
2022/11/04 10:36:25;;;;;;;72.53;30.45;;;;;;;8.47;100.00;97993.81;4461428;32;20113;-74
2022/11/04 10:38:54;;;;;;;70.85;29.12;;;;;;;8.51;100.00;97994.38;4463001;32;20097;-74
2022/11/04 10:41:25;;;;;;;65.22;27.20;;;;;;;8.50;100.00;97982.28;4464296;32;20096;-75
2022/11/04 10:44:33;;;;;;;72.32;29.63;;;;;;;8.51;100.00;97991.75;4463669;32;20126;-75
2022/11/04 10:47:05;;;;;;;76.43;28.77;;;;;;;8.49;100.00;97981.47;4368844;32;20114;-73
2022/11/04 10:49:52;;;;;;;74.60;30.00;;;;;;;8.65;100.00;97993.06;4388742;32;20106;-74
2022/11/04 10:52:41;;;;;;;58.30;24.40;;;;;;;8.69;100.00;97991.81;4345127;32;20177;-73
2022/11/04 10:55:32;;;;;;;74.62;27.85;;;;;;;8.76;100.00;98002.50;4353791;32;20103;-74
2022/11/04 10:57:59;;;;;;;75.30;28.30;;;;;;;8.82;100.00;97996.69;4341540;32;20238;-74
2022/11/04 11:00:53;;;;;;;71.50;26.12;;;;;;;8.91;100.00;97988.00;4356702;32;20119;-73
2022/11/04 11:03:24;;;;;;;78.78;30.15;;;;;;;8.97;100.00;97982.19;4355453;32;20111;-72
2022/11/04 11:05:52;;;;;;;74.57;29.95;;;;;;;9.13;100.00;97993.78;4349515;32;20119;-76
2022/11/04 11:08:29;;;;;;;71.45;29.25;;;;;;;9.16;100.00;97994.31;4364598;32;20138;-73
2022/11/04 11:10:56;;;;;;;69.80;29.65;;;;;;;9.17;100.00;97998.56;4358827;32;20107;-73
2022/11/04 11:13:26;;;;;;;63.75;28.38;;;;;;;9.22;100.00;98000.75;4359519;32;20103;-73
2022/11/04 11:16:12;;;;;;;67.03;28.02;;;;;;;9.48;100.00;97997.37;4353743;32;20550;-73
2022/11/04 11:18:40;;;;;;;73.30;28.02;;;;;;;9.45;100.00;97989.84;4426854;32;20143;-74
2022/11/04 11:21:14;;;;;;;63.97;28.35;;;;;;;9.53;100.00;97992.56;4448727;32;20117;-73
2022/11/04 11:23:47;;;;;;;72.72;27.87;;;;;;;9.50;100.00;97990.25;4449447;32;20182;-73
2022/11/04 11:26:17;;;;;;;66.12;26.48;;;;;;;9.50;100.00;97979.78;4449138;32;20127;-73
2022/11/04 11:28:51;;;;;;;66.45;28.25;;;;;;;9.58;100.00;97982.44;4438110;32;20135;-74
2022/11/04 11:31:25;;;;;;;62.05;27.92;;;;;;;9.52;100.00;97981.28;4462460;32;20100;-73
2022/11/04 11:33:58;;;;;;;71.32;28.10;;;;;;;9.52;100.00;97981.28;4466056;32;20146;-74
2022/11/04 11:36:26;;;;;;;65.57;27.37;;;;;;;9.53;100.00;97971.63;4463598;32;20164;-72
2022/11/04 11:38:59;;;;;;;62.25;27.08;;;;;;;9.35;100.00;97969.84;4461250;32;20759;-74
2022/11/04 11:41:30;;;;;;;73.00;30.12;;;;;;;9.28;100.00;97963.56;4464384;32;20096;-73
2022/11/04 11:44:16;;;;;;;64.78;26.90;;;;;;;9.24;100.00;97962.22;4459779;32;20080;-74
2022/11/04 11:47:12;;;;;;;70.37;27.37;;;;;;;9.26;100.00;97949.81;4464979;32;20458;-74
2022/11/04 11:50:24;;;;;;;61.17;26.95;;;;;;;9.37;100.00;97947.00;4462168;32;20097;-74
2022/11/04 11:53:13;;;;;;;70.65;28.70;;;;;;;9.45;100.00;97948.00;4456742;32;20160;-74
2022/11/04 11:56:22;;;;;;;68.05;28.50;;;;;;;9.59;100.00;97930.00;4463356;32;20165;-73
2022/11/04 11:59:18;;;;;;;69.65;30.17;;;;;;;9.53;100.00;97914.13;4465450;32;20166;-74
2022/11/04 12:02:39;;;;;;;71.10;31.33;;;;;;;9.50;100.00;97922.25;4465272;32;20409;-74
2022/11/04 12:06:16;;;;;;;73.87;28.42;;;;;;;9.56;100.00;97908.56;4463006;32;20140;-73
2022/11/04 12:09:23;;;;;;;69.35;29.48;;;;;;;9.51;100.00;97903.00;4401415;32;20684;-73
2022/11/04 12:12:21;;;;;;;71.60;30.48;;;;;;;9.74;100.00;97901.50;4382461;32;20815;-73
2022/11/04 12:15:08;;;;;;;71.35;30.27;;;;;;;9.85;100.00;97897.00;4400518;32;20564;-73
2022/11/04 12:18:17;;;;;;;77.82;30.73;;;;;;;9.91;100.00;97888.53;4402333;32;20162;-73